Rome, Illinois
Current Conditions -  °F | °C
As of 6:15 AM on Thursday 29 Jan 2015 (Local Time) from KC75 Reporting Station
Overcast Overcast  
Wind Chill: 25°   Ceiling: 2900
Heat Index: 35°   Visibility: 7mi
Dew Point: 31°   Wind: 15mph
Humidity: 87%   Direction: 320°NW
Pressure: 29.78"   Gusts: 24mph
Location:  40.88°N, 89.5°W
Report Text: KC75 291215Z AUTO 32013G21KT 7SM OVC029 02/00 A2978 RMK AO2 T00151005
Loading
Personal Weather Stations






























Interactive Weather Map New forecast layout! Learn more

10-Day Weather Forecast

Advertisements
Track Severe Weather on mobile